createdAt,value
2023-03-01T00:00:35.309Z,-3.01
2023-03-01T00:01:35.300Z,-2.95
2023-03-01T00:02:35.366Z,-2.91
2023-03-01T00:03:35.316Z,-2.91
2023-03-01T00:04:35.624Z,-2.92
2023-03-01T00:05:35.261Z,-2.94
2023-03-01T00:06:35.246Z,-3.02
2023-03-01T00:07:35.243Z,-3.08
2023-03-01T00:08:35.234Z,-3.18
2023-03-01T00:09:35.607Z,-3.16
2023-03-01T00:10:35.208Z,-3.27
2023-03-01T00:11:35.213Z,-3.31
2023-03-01T00:12:35.190Z,-3.36
2023-03-01T00:13:35.189Z,-3.42
2023-03-01T00:14:35.450Z,-3.54
2023-03-01T00:15:35.166Z,-3.55
2023-03-01T00:16:35.287Z,-3.63
2023-03-01T00:17:35.138Z,-3.67
2023-03-01T00:18:35.137Z,-3.74
2023-03-01T00:19:35.437Z,-3.82
2023-03-01T00:20:35.120Z,-3.81
2023-03-01T00:21:35.100Z,-3.87
2023-03-01T00:22:35.117Z,-3.89
2023-03-01T00:23:35.080Z,-3.96
2023-03-01T00:24:35.095Z,-3.97
2023-03-01T00:25:35.064Z,-3.99
2023-03-01T00:26:35.057Z,-4.03
2023-03-01T00:27:35.037Z,-4.07
2023-03-01T00:28:35.036Z,-4.07
2023-03-01T00:29:35.336Z,-4.14
2023-03-01T00:30:35.023Z,-4.14
2023-03-01T00:31:35.011Z,-4.15
2023-03-01T00:32:35.001Z,-4.12
2023-03-01T00:33:34.984Z,-4.07
2023-03-01T00:34:35.824Z,-4.06
2023-03-01T00:35:34.986Z,-4.05
2023-03-01T00:36:35.148Z,-4.06
2023-03-01T00:37:34.952Z,-4.07
2023-03-01T00:38:34.943Z,-4.10
2023-03-01T00:39:35.262Z,-4.12
2023-03-01T00:40:34.922Z,-4.14
2023-03-01T00:41:34.914Z,-4.15
2023-03-01T00:42:34.899Z,-4.18
2023-03-01T00:43:34.887Z,-4.15
2023-03-01T00:44:35.747Z,-4.12
2023-03-01T00:45:34.866Z,-4.17
2023-03-01T00:46:35.351Z,-4.21
2023-03-01T00:47:34.848Z,-4.23
2023-03-01T00:48:34.843Z,-4.23
2023-03-01T00:49:35.263Z,-4.35
2023-03-01T00:50:34.822Z,-4.34
2023-03-01T00:51:34.812Z,-4.42
2023-03-01T00:52:34.804Z,-4.42
2023-03-01T00:53:34.788Z,-4.46
2023-03-01T00:54:35.156Z,-4.49
2023-03-01T00:55:34.776Z,-4.54
2023-03-01T00:56:34.917Z,-4.54
2023-03-01T00:57:34.759Z,-4.54
2023-03-01T00:58:34.758Z,-4.62
2023-03-01T00:59:35.013Z,-4.59
2023-03-01T01:00:34.734Z,-4.54
2023-03-01T01:01:34.833Z,-4.52
2023-03-01T01:02:34.780Z,-4.52
2023-03-01T01:03:34.690Z,-4.49
2023-03-01T01:04:35.567Z,-4.42
2023-03-01T01:05:34.675Z,-4.35
2023-03-01T01:06:34.671Z,-4.35
2023-03-01T01:07:34.649Z,-4.21
2023-03-01T01:08:34.972Z,-4.18
2023-03-01T01:09:35.017Z,-4.09
2023-03-01T01:10:34.627Z,-4.02
2023-03-01T01:11:34.621Z,-3.97
2023-03-01T01:12:34.608Z,-3.99
2023-03-01T01:13:34.590Z,-3.91
2023-03-01T01:14:35.254Z,-3.79
2023-03-01T01:15:34.591Z,-3.78
2023-03-01T01:16:34.583Z,-3.78
2023-03-01T01:17:34.555Z,-3.79
2023-03-01T01:18:34.545Z,-3.85
2023-03-01T01:19:34.836Z,-3.85
2023-03-01T01:20:34.526Z,-3.87
2023-03-01T01:21:34.517Z,-3.85
2023-03-01T01:22:34.508Z,-3.89
2023-03-01T01:23:34.492Z,-3.87
2023-03-01T01:24:34.709Z,-3.94
2023-03-01T01:25:34.475Z,-3.97
2023-03-01T01:26:34.669Z,-3.91
2023-03-01T01:27:34.449Z,-3.96
2023-03-01T01:28:34.462Z,-3.96
2023-03-01T01:29:34.759Z,-4.03
2023-03-01T01:30:34.436Z,-4.00
2023-03-01T01:31:34.514Z,-4.03
2023-03-01T01:32:34.424Z,-4.06
2023-03-01T01:33:34.398Z,-4.06
2023-03-01T01:34:34.671Z,-4.05
2023-03-01T01:35:34.391Z,-3.96
2023-03-01T01:36:34.370Z,-3.97
2023-03-01T01:37:34.352Z,-3.97
2023-03-01T01:38:34.363Z,-3.99
2023-03-01T01:39:34.667Z,-4.00
2023-03-01T01:40:34.329Z,-4.05
2023-03-01T01:41:34.317Z,-4.06
2023-03-01T01:42:34.312Z,-4.10
2023-03-01T01:43:34.298Z,-4.10
2023-03-01T01:44:34.593Z,-4.17
2023-03-01T01:45:34.275Z,-4.21
2023-03-01T01:46:34.662Z,-4.25
2023-03-01T01:47:34.257Z,-4.28
2023-03-01T01:48:34.260Z,-4.27
2023-03-01T01:49:34.540Z,-4.34
2023-03-01T01:50:34.233Z,-4.35
2023-03-01T01:51:34.216Z,-4.41
2023-03-01T01:52:34.216Z,-4.39
2023-03-01T01:53:34.197Z,-4.45
2023-03-01T01:54:34.502Z,-4.48
2023-03-01T01:55:34.182Z,-4.46
2023-03-01T01:56:34.169Z,-4.42
2023-03-01T01:57:34.166Z,-4.41
2023-03-01T01:58:34.155Z,-4.44
2023-03-01T01:59:34.156Z,-4.38
2023-03-01T02:00:34.134Z,-4.46
2023-03-01T02:01:34.116Z,-4.48
2023-03-01T02:02:34.260Z,-4.53
2023-03-01T02:03:34.310Z,-4.62
2023-03-01T02:04:34.578Z,-4.63
2023-03-01T02:05:34.077Z,-4.70
2023-03-01T02:06:34.076Z,-4.77
2023-03-01T02:07:34.062Z,-4.78
2023-03-01T02:08:34.056Z,-4.84
2023-03-01T02:09:34.426Z,-4.85
2023-03-01T02:10:34.035Z,-4.85
2023-03-01T02:11:34.019Z,-4.80
2023-03-01T02:12:34.027Z,-4.73
2023-03-01T02:13:34.001Z,-4.59
2023-03-01T02:14:34.068Z,-4.46
2023-03-01T02:15:33.980Z,-4.38
2023-03-01T02:16:34.507Z,-4.25
2023-03-01T02:17:33.965Z,-4.15
2023-03-01T02:18:33.973Z,-4.14
2023-03-01T02:19:34.269Z,-4.15
2023-03-01T02:20:33.948Z,-4.12
2023-03-01T02:21:33.921Z,-4.17
2023-03-01T02:22:33.964Z,-4.15
2023-03-01T02:23:33.901Z,-4.17
2023-03-01T02:24:34.211Z,-4.20
2023-03-01T02:25:33.889Z,-4.18
2023-03-01T02:26:33.881Z,-4.18
2023-03-01T02:27:33.865Z,-4.21
2023-03-01T02:28:33.887Z,-4.24
2023-03-01T02:29:34.145Z,-4.30
2023-03-01T02:30:33.854Z,-4.38
2023-03-01T02:31:33.885Z,-4.41
2023-03-01T02:32:33.823Z,-4.48
2023-03-01T02:33:33.891Z,-4.56
2023-03-01T02:34:34.306Z,-4.60
2023-03-01T02:35:33.860Z,-4.64
2023-03-01T02:36:33.962Z,-4.67
2023-03-01T02:37:33.764Z,-4.75
2023-03-01T02:38:33.766Z,-4.77
2023-03-01T02:39:34.090Z,-4.77
2023-03-01T02:40:33.743Z,-4.81
2023-03-01T02:41:33.739Z,-4.75
2023-03-01T02:42:33.736Z,-4.84
2023-03-01T02:43:33.716Z,-4.82
2023-03-01T02:44:33.704Z,-4.82
2023-03-01T02:45:33.690Z,-4.82
2023-03-01T02:46:34.039Z,-4.80
2023-03-01T02:47:33.683Z,-4.82
2023-03-01T02:48:33.674Z,-4.80
2023-03-01T02:49:33.652Z,-4.82
2023-03-01T02:50:33.665Z,-4.81
2023-03-01T02:51:33.646Z,-4.85
2023-03-01T02:52:33.623Z,-4.89
2023-03-01T02:53:33.614Z,-4.99
2023-03-01T02:54:33.618Z,-4.93
2023-03-01T02:55:33.597Z,-4.99
2023-03-01T02:56:33.602Z,-4.98
2023-03-01T02:57:33.585Z,-4.95
2023-03-01T02:58:33.566Z,-4.98
2023-03-01T02:59:33.552Z,-4.93
2023-03-01T03:00:33.587Z,-4.93
2023-03-01T03:01:33.532Z,-4.98
2023-03-01T03:02:33.525Z,-4.99
2023-03-01T03:03:33.539Z,-5.02
2023-03-01T03:04:33.505Z,-4.96
2023-03-01T03:05:33.841Z,-5.02
2023-03-01T03:06:33.492Z,-5.05
2023-03-01T03:07:33.473Z,-5.07
2023-03-01T03:08:33.516Z,-5.11
2023-03-01T03:09:33.461Z,-5.13
2023-03-01T03:10:33.813Z,-5.13
2023-03-01T03:11:33.545Z,-5.18
2023-03-01T03:12:33.433Z,-5.18
2023-03-01T03:13:33.415Z,-5.24
2023-03-01T03:14:33.409Z,-5.22
2023-03-01T03:15:33.740Z,-5.21
2023-03-01T03:16:33.965Z,-5.21
2023-03-01T03:17:33.373Z,-5.20
2023-03-01T03:18:33.389Z,-5.22
2023-03-01T03:19:33.354Z,-5.25
2023-03-01T03:20:33.382Z,-5.25
2023-03-01T03:21:33.354Z,-5.31
2023-03-01T03:22:33.326Z,-5.33
2023-03-01T03:23:33.315Z,-5.35
2023-03-01T03:24:33.306Z,-5.29
2023-03-01T03:25:33.609Z,-5.29
2023-03-01T03:26:33.525Z,-5.29
2023-03-01T03:27:33.275Z,-5.25
2023-03-01T03:28:33.266Z,-5.24
2023-03-01T03:29:33.254Z,-5.28
2023-03-01T03:30:33.604Z,-5.24
2023-03-01T03:31:33.289Z,-5.21
2023-03-01T03:32:33.273Z,-5.24
2023-03-01T03:33:33.232Z,-5.32
2023-03-01T03:34:33.214Z,-5.32
2023-03-01T03:35:33.715Z,-5.33
2023-03-01T03:36:33.193Z,-5.36
2023-03-01T03:37:33.171Z,-5.47
2023-03-01T03:38:33.164Z,-5.46
2023-03-01T03:39:33.154Z,-5.54
2023-03-01T03:40:33.504Z,-5.56
2023-03-01T03:41:33.130Z,-5.49
2023-03-01T03:42:33.131Z,-5.51
2023-03-01T03:43:33.115Z,-5.53
2023-03-01T03:44:33.111Z,-5.53
2023-03-01T03:45:33.513Z,-5.54
2023-03-01T03:46:33.413Z,-5.57
2023-03-01T03:47:33.074Z,-5.51
2023-03-01T03:48:33.070Z,-5.59
2023-03-01T03:49:33.056Z,-5.60
2023-03-01T03:50:33.405Z,-5.60
2023-03-01T03:51:33.042Z,-5.61
2023-03-01T03:52:33.030Z,-5.59
2023-03-01T03:53:33.020Z,-5.56
2023-03-01T03:54:33.005Z,-5.61
2023-03-01T03:55:33.461Z,-5.65
2023-03-01T03:56:33.399Z,-5.63
2023-03-01T03:57:32.971Z,-5.60
2023-03-01T03:58:32.964Z,-5.61
2023-03-01T03:59:32.953Z,-5.63
2023-03-01T04:00:33.229Z,-5.63
2023-03-01T04:01:32.943Z,-5.70
2023-03-01T04:02:32.966Z,-5.68
2023-03-01T04:03:32.942Z,-5.67
2023-03-01T04:04:32.912Z,-5.68
2023-03-01T04:05:33.234Z,-5.71
2023-03-01T04:06:33.128Z,-5.67
2023-03-01T04:07:32.875Z,-5.67
2023-03-01T04:08:32.888Z,-5.67
2023-03-01T04:09:32.851Z,-5.71
2023-03-01T04:10:33.167Z,-5.63
2023-03-01T04:11:32.837Z,-5.65
2023-03-01T04:12:32.825Z,-5.61
2023-03-01T04:13:32.810Z,-5.63
2023-03-01T04:14:32.809Z,-5.63
2023-03-01T04:15:32.807Z,-5.57
2023-03-01T04:16:33.167Z,-5.60
2023-03-01T04:17:32.769Z,-5.59
2023-03-01T04:18:32.765Z,-5.65
2023-03-01T04:19:32.750Z,-5.65
2023-03-01T04:20:33.069Z,-5.65
2023-03-01T04:21:32.739Z,-5.67
2023-03-01T04:22:32.723Z,-5.67
2023-03-01T04:23:32.709Z,-5.70
2023-03-01T04:24:32.707Z,-5.68
2023-03-01T04:25:33.244Z,-5.72
2023-03-01T04:26:33.003Z,-5.72
2023-03-01T04:27:32.674Z,-5.75
2023-03-01T04:28:32.660Z,-5.77
2023-03-01T04:29:32.654Z,-5.79
2023-03-01T04:30:33.099Z,-5.78
2023-03-01T04:31:32.676Z,-5.79
2023-03-01T04:32:32.651Z,-5.77
2023-03-01T04:33:32.613Z,-5.77
2023-03-01T04:34:32.603Z,-5.79
2023-03-01T04:35:32.886Z,-5.78
2023-03-01T04:36:32.970Z,-5.75
2023-03-01T04:37:32.577Z,-5.71
2023-03-01T04:38:32.557Z,-5.71
2023-03-01T04:39:32.556Z,-5.70
2023-03-01T04:40:32.848Z,-5.67
2023-03-01T04:41:32.537Z,-5.67
2023-03-01T04:42:32.521Z,-5.67
2023-03-01T04:43:32.517Z,-5.68
2023-03-01T04:44:32.499Z,-5.70
2023-03-01T04:45:32.533Z,-5.65
2023-03-01T04:46:32.871Z,-5.71
2023-03-01T04:47:32.475Z,-5.70
2023-03-01T04:48:32.463Z,-5.67
2023-03-01T04:49:32.456Z,-5.72
2023-03-01T04:50:32.458Z,-5.68
2023-03-01T04:51:32.436Z,-5.70
2023-03-01T04:52:32.425Z,-5.63
2023-03-01T04:53:32.421Z,-5.59
2023-03-01T04:54:32.402Z,-5.60
2023-03-01T04:55:32.797Z,-5.57
2023-03-01T04:56:32.750Z,-5.59
2023-03-01T04:57:32.382Z,-5.57
2023-03-01T04:58:32.365Z,-5.56
2023-03-01T04:59:32.360Z,-5.56
2023-03-01T05:00:32.758Z,-5.54
2023-03-01T05:01:32.340Z,-5.54
2023-03-01T05:02:32.356Z,-5.53
2023-03-01T05:03:32.318Z,-5.59
2023-03-01T05:04:32.386Z,-5.59
2023-03-01T05:05:32.652Z,-5.54
2023-03-01T05:06:32.594Z,-5.54
2023-03-01T05:07:32.284Z,-5.60
2023-03-01T05:08:32.268Z,-5.57
2023-03-01T05:09:32.269Z,-5.59
2023-03-01T05:10:32.564Z,-5.57
2023-03-01T05:11:32.238Z,-5.57
2023-03-01T05:12:32.229Z,-5.59
2023-03-01T05:13:32.221Z,-5.61
2023-03-01T05:14:32.206Z,-5.60
2023-03-01T05:15:32.706Z,-5.67
2023-03-01T05:16:34.137Z,-5.70
2023-03-01T05:17:32.178Z,-5.65
2023-03-01T05:18:32.173Z,-5.59
2023-03-01T05:19:32.163Z,-5.60
2023-03-01T05:20:32.169Z,-5.50
2023-03-01T05:21:32.158Z,-5.47
2023-03-01T05:22:32.129Z,-5.42
2023-03-01T05:23:32.123Z,-5.46
2023-03-01T05:24:32.114Z,-5.47
2023-03-01T05:25:32.112Z,-5.42
2023-03-01T05:26:32.102Z,-5.42
2023-03-01T05:27:32.087Z,-5.43
2023-03-01T05:28:32.022Z,-5.47
2023-03-01T05:29:32.069Z,-5.51
2023-03-01T05:30:32.063Z,-5.54
2023-03-01T05:31:32.438Z,-5.61
2023-03-01T05:32:32.034Z,-5.60
2023-03-01T05:33:32.032Z,-5.61
2023-03-01T05:34:31.973Z,-5.67
2023-03-01T05:35:31.960Z,-5.70
2023-03-01T05:36:32.451Z,-5.67
2023-03-01T05:37:31.989Z,-5.74
2023-03-01T05:38:31.939Z,-5.72
2023-03-01T05:39:31.945Z,-5.75
2023-03-01T05:40:31.900Z,-5.78
2023-03-01T05:41:31.905Z,-5.75
2023-03-01T05:42:31.895Z,-5.79
2023-03-01T05:43:31.877Z,-5.85
2023-03-01T05:44:31.861Z,-5.89
2023-03-01T05:45:31.854Z,-5.88
2023-03-01T05:46:32.648Z,-5.88
2023-03-01T05:47:31.836Z,-5.81
2023-03-01T05:48:31.820Z,-5.81
2023-03-01T05:49:31.814Z,-5.78
2023-03-01T05:50:31.801Z,-5.81
2023-03-01T05:51:31.809Z,-5.85
2023-03-01T05:52:31.780Z,-5.81
2023-03-01T05:53:31.776Z,-5.77
2023-03-01T05:54:31.772Z,-5.77
2023-03-01T05:55:31.776Z,-5.77
2023-03-01T05:56:32.067Z,-5.71
2023-03-01T05:57:31.749Z,-5.72
2023-03-01T05:58:31.733Z,-5.72
2023-03-01T05:59:31.721Z,-5.71
2023-03-01T06:00:31.709Z,-5.71
2023-03-01T06:01:32.020Z,-5.67
2023-03-01T06:02:31.695Z,-5.68
2023-03-01T06:03:31.686Z,-5.68
2023-03-01T06:04:31.701Z,-5.65
2023-03-01T06:05:31.739Z,-5.63
2023-03-01T06:06:32.415Z,-5.60
2023-03-01T06:07:31.649Z,-5.63
2023-03-01T06:08:31.631Z,-5.61
2023-03-01T06:09:31.626Z,-5.61
2023-03-01T06:10:31.615Z,-5.57
2023-03-01T06:11:31.964Z,-5.63
2023-03-01T06:12:31.592Z,-5.65
2023-03-01T06:13:31.588Z,-5.63
2023-03-01T06:14:31.574Z,-5.65
2023-03-01T06:15:31.583Z,-5.61
2023-03-01T06:16:31.985Z,-5.60
2023-03-01T06:17:31.549Z,-5.65
2023-03-01T06:18:31.543Z,-5.65
2023-03-01T06:19:31.531Z,-5.65
2023-03-01T06:20:31.516Z,-5.65
2023-03-01T06:21:31.896Z,-5.61
2023-03-01T06:22:31.496Z,-5.60
2023-03-01T06:23:31.490Z,-5.65
2023-03-01T06:24:31.474Z,-5.67
2023-03-01T06:25:31.471Z,-5.72
2023-03-01T06:26:31.858Z,-5.67
2023-03-01T06:27:31.458Z,-5.74
2023-03-01T06:28:31.436Z,-5.70
2023-03-01T06:29:31.436Z,-5.68
2023-03-01T06:30:31.416Z,-5.60
2023-03-01T06:31:31.929Z,-5.31
2023-03-01T06:32:31.397Z,-4.85
2023-03-01T06:33:31.398Z,-4.44
2023-03-01T06:34:31.377Z,-4.07
2023-03-01T06:35:31.384Z,-3.66
2023-03-01T06:36:32.093Z,-3.31
2023-03-01T06:37:31.355Z,-2.85
2023-03-01T06:38:31.338Z,-2.48
2023-03-01T06:39:31.333Z,-2.16
2023-03-01T06:40:31.319Z,-1.97
2023-03-01T06:41:31.335Z,-1.72
2023-03-01T06:42:31.298Z,-1.43
2023-03-01T06:43:31.293Z,-1.29
2023-03-01T06:44:31.278Z,-1.07
2023-03-01T06:45:31.275Z,-0.84
2023-03-01T06:46:31.669Z,-0.73
2023-03-01T06:47:31.255Z,-0.76
2023-03-01T06:48:31.238Z,-0.55
2023-03-01T06:49:31.247Z,-0.38
2023-03-01T06:50:31.290Z,-0.52
2023-03-01T06:51:31.532Z,-0.28
2023-03-01T06:52:31.209Z,0.11
2023-03-01T06:53:31.198Z,0.07
2023-03-01T06:54:31.211Z,0.26
2023-03-01T06:55:31.177Z,0.08
2023-03-01T06:56:32.079Z,0.43
2023-03-01T06:57:31.148Z,0.67
2023-03-01T06:58:31.140Z,0.91
2023-03-01T06:59:31.134Z,1.03
2023-03-01T07:00:31.205Z,1.36
2023-03-01T07:01:31.451Z,1.30
2023-03-01T07:02:31.126Z,1.20
2023-03-01T07:03:35.492Z,1.27
2023-03-01T07:04:31.076Z,1.41
2023-03-01T07:05:31.087Z,1.30
2023-03-01T07:06:31.572Z,1.23
2023-03-01T07:07:31.043Z,1.41
2023-03-01T07:08:31.048Z,1.63
2023-03-01T07:09:31.022Z,1.75
2023-03-01T07:10:31.088Z,1.57
2023-03-01T07:11:31.029Z,2.00
2023-03-01T07:12:30.997Z,1.85
2023-03-01T07:13:30.984Z,1.87
2023-03-01T07:14:30.984Z,1.84
2023-03-01T07:15:30.964Z,1.81
2023-03-01T07:16:31.415Z,2.00
2023-03-01T07:17:30.945Z,2.32
2023-03-01T07:18:30.941Z,2.29
2023-03-01T07:19:30.997Z,2.47
2023-03-01T07:20:30.924Z,2.37
2023-03-01T07:21:30.908Z,2.43
2023-03-01T07:22:30.898Z,2.55
2023-03-01T07:23:30.885Z,2.47
2023-03-01T07:24:30.880Z,2.72
2023-03-01T07:25:30.865Z,2.81
2023-03-01T07:26:31.107Z,3.09
2023-03-01T07:27:30.848Z,3.22
2023-03-01T07:28:30.865Z,3.29
2023-03-01T07:29:30.829Z,3.30
2023-03-01T07:30:30.825Z,3.02
2023-03-01T07:31:30.812Z,3.09
2023-03-01T07:32:30.915Z,3.09
2023-03-01T07:33:30.787Z,3.08
2023-03-01T07:34:30.780Z,3.05
2023-03-01T07:35:30.813Z,3.20
2023-03-01T07:36:31.117Z,3.17
2023-03-01T07:37:30.752Z,3.30
2023-03-01T07:38:30.738Z,3.18
2023-03-01T07:39:30.728Z,3.32
2023-03-01T07:40:30.721Z,3.70
2023-03-01T07:41:30.711Z,3.66
2023-03-01T07:42:30.706Z,3.55
2023-03-01T07:43:30.685Z,3.20
2023-03-01T07:44:30.680Z,3.23
2023-03-01T07:45:30.707Z,3.66
2023-03-01T07:46:30.950Z,3.99
2023-03-01T07:47:30.658Z,3.81
2023-03-01T07:48:30.647Z,3.69
2023-03-01T07:49:30.630Z,4.09
2023-03-01T07:50:30.618Z,4.09
2023-03-01T07:51:30.609Z,3.87
2023-03-01T07:52:30.616Z,3.98
2023-03-01T07:53:30.583Z,4.17
2023-03-01T07:54:30.576Z,4.05
2023-03-01T07:55:30.563Z,4.38
2023-03-01T07:56:30.947Z,4.49
2023-03-01T07:57:30.544Z,4.46
2023-03-01T07:58:30.541Z,4.43
2023-03-01T07:59:30.518Z,4.74
2023-03-01T08:00:30.517Z,4.56
2023-03-01T08:01:30.552Z,4.77
2023-03-01T08:02:30.492Z,4.93
2023-03-01T08:03:30.476Z,4.72
2023-03-01T08:04:30.490Z,4.85
2023-03-01T08:05:30.453Z,4.94
2023-03-01T08:06:31.171Z,4.49
2023-03-01T08:07:30.440Z,4.48
2023-03-01T08:08:30.432Z,4.67
2023-03-01T08:09:30.435Z,4.60
2023-03-01T08:10:30.405Z,4.82
2023-03-01T08:11:30.744Z,4.82
2023-03-01T08:12:30.394Z,4.97
2023-03-01T08:13:30.381Z,5.09
2023-03-01T08:14:30.384Z,5.14
2023-03-01T08:15:30.358Z,5.06
2023-03-01T08:16:30.948Z,5.03
2023-03-01T08:17:30.328Z,5.06
2023-03-01T08:18:30.333Z,5.06
2023-03-01T08:19:30.315Z,5.00
2023-03-01T08:20:30.305Z,4.74
2023-03-01T08:21:30.577Z,4.96
2023-03-01T08:22:30.293Z,5.03
2023-03-01T08:23:30.267Z,4.89
2023-03-01T08:24:30.263Z,4.88
2023-03-01T08:25:30.244Z,4.61
2023-03-01T08:26:30.779Z,4.75
2023-03-01T08:27:30.227Z,5.03
2023-03-01T08:28:30.221Z,5.30
2023-03-01T08:29:30.206Z,5.51
2023-03-01T08:30:30.200Z,5.44
2023-03-01T08:31:30.431Z,5.24
2023-03-01T08:32:30.237Z,5.16
2023-03-01T08:33:30.233Z,5.52
2023-03-01T08:34:30.159Z,5.41
2023-03-01T08:35:30.193Z,5.61
2023-03-01T08:36:30.759Z,5.43
2023-03-01T08:37:30.120Z,5.25
2023-03-01T08:38:30.122Z,5.55
2023-03-01T08:39:30.160Z,5.24
2023-03-01T08:40:30.091Z,4.96
2023-03-01T08:41:30.222Z,4.63
2023-03-01T08:42:30.072Z,4.82
2023-03-01T08:43:30.065Z,4.56
2023-03-01T08:44:30.053Z,4.71
2023-03-01T08:45:30.134Z,4.77
2023-03-01T08:46:30.680Z,4.69
2023-03-01T08:47:30.032Z,4.85
2023-03-01T08:48:30.016Z,5.12
2023-03-01T08:49:30.006Z,5.47
2023-03-01T08:50:29.991Z,5.55
2023-03-01T08:51:29.993Z,5.55
2023-03-01T08:52:29.992Z,5.54
2023-03-01T08:53:29.962Z,5.40
2023-03-01T08:54:29.954Z,5.19
2023-03-01T08:55:29.941Z,4.89
2023-03-01T08:56:30.201Z,5.07
2023-03-01T08:57:30.139Z,5.30
2023-03-01T08:58:29.906Z,4.93
2023-03-01T08:59:29.903Z,4.85
2023-03-01T09:00:29.889Z,4.75
2023-03-01T09:01:29.891Z,4.85
2023-03-01T09:02:29.900Z,4.77
2023-03-01T09:03:29.862Z,4.43
2023-03-01T09:04:29.906Z,4.45
2023-03-01T09:05:29.838Z,4.43
2023-03-01T09:06:30.246Z,4.31
2023-03-01T09:07:29.842Z,4.38
2023-03-01T09:08:29.908Z,4.27
2023-03-01T09:09:29.802Z,4.27
2023-03-01T09:10:29.793Z,4.42
2023-03-01T09:11:29.782Z,4.57
2023-03-01T09:12:29.772Z,4.59
2023-03-01T09:13:29.763Z,4.42
2023-03-01T09:14:29.745Z,4.34
2023-03-01T09:15:29.745Z,4.03
2023-03-01T09:16:30.298Z,4.18
2023-03-01T09:17:29.722Z,4.16
2023-03-01T09:18:29.703Z,3.87
2023-03-01T09:19:29.701Z,4.00
2023-03-01T09:20:29.686Z,4.20
2023-03-01T09:21:40.102Z,4.30
2023-03-01T09:22:29.672Z,4.48
2023-03-01T09:23:29.669Z,4.49
2023-03-01T09:24:29.645Z,4.54
2023-03-01T09:25:29.639Z,4.36
2023-03-01T09:26:30.082Z,4.27
2023-03-01T09:27:29.628Z,4.21
2023-03-01T09:28:30.449Z,4.30
2023-03-01T09:29:29.600Z,4.42
2023-03-01T09:30:29.585Z,4.69
2023-03-01T09:31:29.581Z,4.74
2023-03-01T09:32:29.579Z,4.79
2023-03-01T09:33:29.562Z,4.94
2023-03-01T09:34:29.541Z,4.93
2023-03-01T09:35:29.535Z,4.88
2023-03-01T09:36:30.020Z,4.78
2023-03-01T09:37:29.518Z,4.75
2023-03-01T09:38:29.513Z,4.82
2023-03-01T09:39:29.495Z,4.72
2023-03-01T09:40:29.482Z,4.77
2023-03-01T09:41:29.476Z,4.71
2023-03-01T09:42:29.481Z,4.74
2023-03-01T09:43:29.455Z,4.75
2023-03-01T09:44:29.440Z,4.74
2023-03-01T09:45:29.437Z,4.82
2023-03-01T09:46:30.079Z,4.75
2023-03-01T09:47:29.417Z,4.83
2023-03-01T09:48:29.406Z,4.64
2023-03-01T09:49:29.407Z,4.61
2023-03-01T09:50:29.389Z,4.57
2023-03-01T09:51:29.376Z,4.69
2023-03-01T09:52:29.367Z,4.74
2023-03-01T09:53:29.351Z,4.77
2023-03-01T09:54:29.339Z,4.64
2023-03-01T09:55:29.330Z,4.77
2023-03-01T09:56:29.732Z,4.88
2023-03-01T09:57:29.319Z,4.88
2023-03-01T09:58:29.297Z,4.94
2023-03-01T09:59:29.294Z,5.00
2023-03-01T10:00:29.280Z,5.00
2023-03-01T10:01:29.504Z,5.06
2023-03-01T10:02:29.257Z,5.06
2023-03-01T10:03:29.333Z,5.04
2023-03-01T10:04:29.281Z,5.11
2023-03-01T10:05:29.228Z,5.30
2023-03-01T10:06:35.089Z,5.27
2023-03-01T10:07:29.222Z,5.11
2023-03-01T10:08:29.194Z,4.94
2023-03-01T10:09:29.186Z,4.94
2023-03-01T10:10:29.184Z,5.00
2023-03-01T10:11:29.172Z,4.82
2023-03-01T10:12:29.159Z,4.89
2023-03-01T10:13:29.153Z,4.98
2023-03-01T10:14:29.129Z,5.12
2023-03-01T10:15:29.126Z,5.18
2023-03-01T10:16:29.108Z,5.15
2023-03-01T10:17:29.110Z,5.18
2023-03-01T10:18:29.097Z,5.36
2023-03-01T10:19:29.081Z,5.52
2023-03-01T10:20:29.066Z,5.55
2023-03-01T10:21:29.403Z,5.43
2023-03-01T10:22:29.071Z,5.44
2023-03-01T10:23:29.113Z,5.50
2023-03-01T10:24:29.027Z,5.51
2023-03-01T10:25:29.023Z,5.59
2023-03-01T10:26:29.306Z,5.67
2023-03-01T10:27:29.011Z,5.72
2023-03-01T10:28:28.995Z,5.70
2023-03-01T10:29:28.979Z,5.76
2023-03-01T10:30:28.965Z,5.75
2023-03-01T10:31:29.668Z,5.80
2023-03-01T10:32:28.983Z,5.95
2023-03-01T10:33:28.963Z,5.87
2023-03-01T10:34:28.933Z,5.73
2023-03-01T10:35:29.003Z,5.73
2023-03-01T10:36:29.330Z,5.61
2023-03-01T10:37:28.907Z,5.55
2023-03-01T10:38:28.885Z,5.50
2023-03-01T10:39:28.877Z,5.44
2023-03-01T10:40:28.861Z,5.57
2023-03-01T10:41:29.378Z,5.62
2023-03-01T10:42:28.846Z,5.70
2023-03-01T10:43:28.836Z,5.76
2023-03-01T10:44:28.822Z,5.85
2023-03-01T10:45:28.814Z,5.90
2023-03-01T10:46:28.856Z,5.84
2023-03-01T10:47:28.816Z,5.91
2023-03-01T10:48:28.778Z,5.91
2023-03-01T10:49:28.785Z,5.95
2023-03-01T10:50:28.761Z,5.98
2023-03-01T10:51:28.961Z,6.05
2023-03-01T10:52:28.744Z,6.11
2023-03-01T10:53:28.734Z,6.25
2023-03-01T10:54:28.728Z,6.35
2023-03-01T10:55:28.713Z,6.43
2023-03-01T10:56:28.701Z,6.56
2023-03-01T10:57:28.697Z,6.65
2023-03-01T10:58:28.678Z,6.56
2023-03-01T10:59:28.673Z,6.31
2023-03-01T11:00:28.659Z,5.85
2023-03-01T11:01:28.922Z,5.76
2023-03-01T11:02:29.133Z,5.84
2023-03-01T11:03:28.629Z,5.98
2023-03-01T11:04:28.669Z,5.94
2023-03-01T11:05:28.626Z,5.77
2023-03-01T11:06:28.591Z,5.85
2023-03-01T11:07:29.306Z,6.05
2023-03-01T11:08:28.578Z,6.19
2023-03-01T11:09:28.564Z,6.31
2023-03-01T11:10:28.557Z,6.25
2023-03-01T11:11:28.865Z,6.05
2023-03-01T11:12:28.868Z,5.95
2023-03-01T11:13:28.530Z,5.82
2023-03-01T11:14:28.699Z,5.85
2023-03-01T11:15:28.511Z,5.91
2023-03-01T11:16:28.680Z,5.98
2023-03-01T11:17:28.810Z,6.21
2023-03-01T11:18:44.275Z,6.16
2023-03-01T11:19:28.481Z,6.18
2023-03-01T11:20:29.905Z,6.27
2023-03-01T11:21:28.674Z,6.35
2023-03-01T11:22:28.828Z,6.45
2023-03-01T11:23:28.418Z,6.64
2023-03-01T11:24:28.406Z,6.65
2023-03-01T11:25:28.401Z,6.47
2023-03-01T11:26:28.388Z,6.61
2023-03-01T11:27:28.647Z,6.60
2023-03-01T11:28:28.400Z,6.63
2023-03-01T11:29:29.681Z,6.65
2023-03-01T11:30:28.344Z,6.71
2023-03-01T11:31:28.361Z,6.73
2023-03-01T11:32:28.817Z,6.74
2023-03-01T11:33:28.309Z,6.86
2023-03-01T11:34:28.295Z,7.00
2023-03-01T11:35:28.295Z,6.91
2023-03-01T11:36:28.342Z,6.52
2023-03-01T11:37:28.592Z,6.21
2023-03-01T11:38:28.257Z,6.37
2023-03-01T11:39:28.244Z,6.52
2023-03-01T11:40:28.239Z,6.71
2023-03-01T11:41:28.228Z,6.85
2023-03-01T11:42:28.655Z,6.83
2023-03-01T11:43:28.206Z,6.68
2023-03-01T11:44:28.192Z,6.64
2023-03-01T11:45:28.183Z,6.31
2023-03-01T11:46:28.275Z,6.45
2023-03-01T11:47:28.361Z,6.53
2023-03-01T11:48:29.427Z,6.71
2023-03-01T11:49:28.162Z,6.89
2023-03-01T11:50:28.122Z,7.08
2023-03-01T11:51:28.122Z,7.15
2023-03-01T11:52:28.105Z,6.93
2023-03-01T11:53:28.132Z,6.82
2023-03-01T11:54:28.089Z,6.97
2023-03-01T11:55:28.077Z,6.97
2023-03-01T11:56:28.088Z,7.04
2023-03-01T11:57:41.098Z,7.15
2023-03-01T11:58:28.057Z,7.13
2023-03-01T11:59:28.032Z,7.10
2023-03-01T12:00:28.029Z,7.11
2023-03-01T12:01:28.032Z,7.19
2023-03-01T12:02:28.072Z,7.19
2023-03-01T12:03:27.997Z,7.19
2023-03-01T12:04:28.114Z,7.13
2023-03-01T12:05:27.966Z,6.79
2023-03-01T12:06:27.958Z,6.57
2023-03-01T12:07:27.950Z,6.55
2023-03-01T12:08:27.938Z,6.30
2023-03-01T12:09:27.928Z,6.24
2023-03-01T12:10:27.913Z,6.31
2023-03-01T12:11:27.906Z,6.28
2023-03-01T12:12:27.888Z,6.16
2023-03-01T12:13:27.890Z,6.27
2023-03-01T12:14:27.870Z,6.25
2023-03-01T12:15:27.866Z,6.28
2023-03-01T12:16:38.328Z,6.40
2023-03-01T12:17:27.848Z,6.55
2023-03-01T12:18:27.829Z,6.67
2023-03-01T12:19:27.823Z,6.81
2023-03-01T12:20:27.809Z,6.86
2023-03-01T12:21:27.814Z,7.00
2023-03-01T12:22:27.787Z,6.83
2023-03-01T12:23:27.787Z,6.81
2023-03-01T12:24:27.783Z,6.83
2023-03-01T12:25:27.782Z,6.91
2023-03-01T12:26:27.747Z,7.01
2023-03-01T12:27:27.732Z,7.10
2023-03-01T12:28:27.734Z,7.11
2023-03-01T12:29:27.724Z,7.19
2023-03-01T12:30:27.701Z,7.28
2023-03-01T12:31:27.745Z,7.37
2023-03-01T12:32:28.665Z,7.44
2023-03-01T12:33:27.688Z,7.37
2023-03-01T12:34:27.666Z,7.13
2023-03-01T12:35:27.657Z,7.10
2023-03-01T12:36:27.642Z,7.01
2023-03-01T12:37:27.730Z,6.93
2023-03-01T12:38:27.629Z,7.08
2023-03-01T12:39:27.619Z,7.29
2023-03-01T12:40:27.602Z,7.33
2023-03-01T12:41:27.629Z,7.31
2023-03-01T12:42:27.576Z,7.39
2023-03-01T12:43:27.578Z,7.55
2023-03-01T12:44:27.552Z,7.69
2023-03-01T12:45:27.650Z,7.68
2023-03-01T12:46:27.539Z,7.60
2023-03-01T12:47:27.533Z,7.64
2023-03-01T12:48:27.512Z,7.81
2023-03-01T12:49:27.509Z,7.94
2023-03-01T12:50:27.496Z,7.95
2023-03-01T12:51:27.484Z,8.01
2023-03-01T12:52:27.469Z,8.02
2023-03-01T12:53:27.470Z,8.10
2023-03-01T12:54:27.460Z,8.24
2023-03-01T12:55:27.441Z,8.21
2023-03-01T12:56:27.433Z,7.98
2023-03-01T12:57:27.425Z,8.05
2023-03-01T12:58:34.098Z,8.01
2023-03-01T12:59:27.407Z,7.91
2023-03-01T13:00:27.395Z,8.05
2023-03-01T13:01:27.511Z,8.05
2023-03-01T13:02:27.368Z,8.16
2023-03-01T13:03:27.367Z,7.78
2023-03-01T13:04:27.348Z,7.71